Bookmark and Share
Track history (hours):
 

Moku Pahu

More information available from US FCC via Universal Licensing System and Coast Guard Vessel Documentation Center.

Last reported at 2014-Apr-14 12:00 UTC. Time now 2014-Apr-16 22:19 UTC.
Position N 23°12' W 154°48'.

Type: Ship. MMSI: 366857000.

Wind from 050 at 18 knots

Waves 2.0 meters (7 feet), 10 second period

Barometer 1024.0 mb
Air temperature 21.1 ° C
Visibility: greater than 10.8 NM
Dewpoint 14.0 ° C

NotesDate/timePositionNaut miles runAvg speedWind from/ knotsBaromVisibWave heightAir tempDewpointWater temp
2014-Apr-14 12:00N 23°12' W 154°48'   050 / 181024.010.8 2.021.114.0
2014-Apr-06 02:13N 37°16' W 123°45'25 8.7
2014-Apr-05 23:19N 37°29' W 123°17'7 8.6
2014-Apr-05 22:33N 37°32' W 123°10'8 8.5
2014-Apr-05 21:33N 37°36' W 123°00'9 8.8
2014-Apr-05 20:33N 37°41' W 122°51'9 8.7
2014-Apr-05 19:33N 37°46' W 122°42'1212.5
2014-Apr-05 18:33N 37°50' W 122°27'8 7.8
2014-Apr-05 17:31N 37°48' W 122°17'0 0.0
2014-Apr-05 16:32N 37°48' W 122°17'0 0.0
2014-Apr-05 15:33N 37°48' W 122°17'0 0.0
2014-Apr-05 14:33N 37°48' W 122°17'0 0.0
2014-Apr-05 13:31N 37°48' W 122°17'0 0.0
2014-Apr-05 12:32N 37°48' W 122°17'0 0.0
2014-Apr-05 11:32N 37°48' W 122°17'0 0.0
2014-Apr-05 10:33N 37°48' W 122°17'0 0.0
2014-Apr-05 09:34N 37°48' W 122°17'0 0.0
2014-Apr-05 08:31N 37°48' W 122°17'0 0.0
2014-Apr-05 07:32N 37°48' W 122°17'0 0.0
2014-Apr-05 06:33N 37°48' W 122°17'0 0.0
2014-Apr-05 05:33N 37°48' W 122°17'0 0.0
2014-Apr-05 04:31N 37°48' W 122°17'0 0.0
2014-Apr-05 03:31N 37°48' W 122°17'0 0.0
2014-Apr-05 02:32N 37°48' W 122°17'0 0.0
2014-Apr-05 01:33N 37°48' W 122°17'0 0.0
2014-Apr-05 00:33N 37°48' W 122°17'0 0.0
2014-Apr-04 23:31N 37°48' W 122°17'0 0.0
2014-Apr-04 22:32N 37°48' W 122°17'0 0.0
2014-Apr-04 21:32N 37°48' W 122°17'0 0.0
2014-Apr-04 20:33N 37°48' W 122°17'0 0.0
2014-Apr-04 19:31N 37°48' W 122°17'0 0.0
2014-Apr-04 18:31N 37°48' W 122°17'0 0.0
2014-Apr-04 17:32N 37°48' W 122°17'0 0.0
2014-Apr-04 16:33N 37°48' W 122°17'0 0.0
2014-Apr-04 15:33N 37°48' W 122°17'0 0.0
2014-Apr-04 14:31N 37°48' W 122°17'0 0.0
2014-Apr-04 13:32N 37°48' W 122°17'0 0.0
2014-Apr-04 12:32N 37°48' W 122°17'  

Dump ship's entire track history

sailing weather and tide predictions

Moku Pahu — WBWK — position and weather